Domov               UVHVVR             MKGP            O straneh              
ZDRAVSTVENO VARSTVO RASTLIN
  MREŽA AGROMET. POSTAJ
 ► PROGNOSTIČNA OBVESTILA
AGROMETEOROLOŠKI PODATKI -
ARSO
OBVLADOVANJE TVEGANJ ZARADI
NEUGODNIH VREMENSKIH RAZMER
  ► NARAVNE NESREČE
  ► SUŠA/MOČA
  ► NAMAKANJE
  ► ŽLED (gozdarstvo)
KARTOGRAFSKI PRIKAZI
SPLETNE POVEZAVE
PROJEKTI IN PUBLIKACIJE

AGROMETEOROLOŠKA MREŽA: VREMENSKE POSTAJE IN FENOLOŠKA OPAZOVANJA

Pregled podatkov za lokacijo Litmerk, meteorološka postaja 27388

Pregled senzorjev na lokaciji

ID Ime Zadnja
vrednost
Datum
zadnje
spremembe
Tip
senzorja
1457 Omočenost lista (U) 0 U 26.3.2019 18:30 A730WET
953 Padavine (mm) 0 mm 26.3.2019 18:30 Generic 0.2 mm
1459 Relativna vlaga 2 m (% RH) 42,76 % RH 26.3.2019 18:30 Generic 0 - 100 %
1458 Temperatura 2 m (°C) 9,28 °C 26.3.2019 18:29 Generic -40 - +60 °C

Pregled podatkov zadnjih 24 ur

Zap.
št.
Datum in čas Litmerk
Omočenost
lista
Padavine Relativna
vlaga
2
m
Temperatura
2
m
1 26.3.2019 17:30 0 0 42,8 9,3
2 26.3.2019 17:00 0 0 44 10
3 26.3.2019 16:30 0 0 42,2 10,2
4 26.3.2019 16:00 0 0 40,9 9,6
5 26.3.2019 15:30 0 0 43,4 10,6
6 26.3.2019 15:00 0 0 44,4 10,6
7 26.3.2019 14:30 0 0 41,2 10,2
8 26.3.2019 14:00 0 0 42,1 9,8
9 26.3.2019 13:30 0 0 45 9,4
10 26.3.2019 13:00 0 0 43,8 9,9
11 26.3.2019 12:30 0 0 48,5 9,9
12 26.3.2019 12:00 0 0 47,2 9,2
13 26.3.2019 11:30 0 0 49,3 8,9
14 26.3.2019 11:00 0 0 51,3 8,4
15 26.3.2019 10:30 0 0 49,6 8,4
16 26.3.2019 10:00 0 0 51,9 7,4
17 26.3.2019 09:30 0 0 61,2 7,3
18 26.3.2019 09:00 0 0 65 6,5
19 26.3.2019 08:30 0 0 66,2 5,8
20 26.3.2019 08:00 0 0 67,4 5
21 26.3.2019 07:30 0 0 73,1 4,3
22 26.3.2019 07:00 0 0 71,6 3,9
23 26.3.2019 06:30 0 0 73,6 3,4
24 26.3.2019 06:00 0 0 73,2 3,7
25 26.3.2019 05:30 0 0 72,5 3,7
26 26.3.2019 05:00 0 0 72,9 3,9
27 26.3.2019 04:30 0 0 70,7 3,8
28 26.3.2019 04:00 0 0 73,6 3,7
29 26.3.2019 03:30 0 0 85,3 3,7
30 26.3.2019 03:00 0 0 72,3 4,1
31 26.3.2019 02:30 1 0 84,4 4,1
32 26.3.2019 02:00 1 0 86,7 4,2
33 26.3.2019 01:30 1 0 85,9 4,1
34 26.3.2019 01:00 0 0 86,6 4,4
35 26.3.2019 00:30 0 0 80,7 4,7
36 26.3.2019 00:00 0 0 78,1 4,7
37 25.3.2019 23:30 0 0 81,3 4,8
38 25.3.2019 23:00 0 0 71 5,3
39 25.3.2019 22:30 0 0 80,9 4,9
40 25.3.2019 22:00 0 0 84 4,5
41 25.3.2019 21:30 2 0 79,6 4,9
42 25.3.2019 21:00 10 0,2 82,6 4,9
43 25.3.2019 20:30 10 0,6 86,7 4,9
44 25.3.2019 20:00 10 0,6 78 5,6
45 25.3.2019 19:30 9 0 80 5,8
46 25.3.2019 19:00 10 0,6 80,8 5,5
47 25.3.2019 18:30 10 0,8 82,9 5,8
48 25.3.2019 18:00 9 1,4 95,9 5
© 2011 Ministrstvo za kmetijstvo, gozdarstvo in prehrano. Vse pravice pridržane.